Jacksonville Naval Air Station
KNIP : rendu visible

Aérodrome :











RETROUVEZ-NOUS SUR...

 
LOGIN :

S'inscrire | Disclaimer

   EN    FR    IT 

 









Légende :    VFR   VFR Marginal   IFR   IFR Intensif   IFR Très Intensif
Visi : 
Plafond : 
>= 8 km
>= 3000ft
5 à 8 km
1000 à 3000 ft
1500m à 5 km
500 à 1000 ft
800 à 1500m
200 à 500 ft
< 800m
< 200 ft
Symboles :   Orages  Brouillard  Fortes neiges  Fortes précipitations  Vent > 20 kt







- Altitude de l'aérodrome : 21 ft


KNIP - Jacksonville Naval Air Station

DERNIER METAR :
  • 191453Z VRB04KT 10SM SCT030 BKN041 27/18 A3008 RMK AO2 SLP182 T02670183 53005

METARs EXPIRÉS :
  • 191353Z 18005KT 10SM SCT030 SCT250 26/19 A3008 RMK AO2 SLP180 T02560189
  • 191253Z 00000KT 10SM FEW030 FEW250 24/18 A3007 RMK AO2 SLP177 T02440183

TAF TAF KNIP
Valide du 19 à 07h jusqu'au 20 à 07h UTC


1907/2007 16008KT 9999 FEW010 SCT020 BKN040 QNH2998INS
FM191300 VRB05KT 9000 VCSH FEW010 SCT020 BKN040 QNH2997INS
TEMPO 1914/1920 13008KT 6000 SHRA SCT010 BKN020 OVC030
BECMG 1921/1923 11013G18KT 9999 NSW FEW015 SCT030 BKN050 540009 540906 542009 542909 543805 QNH2998INS
BECMG 2004/2006 VRB06KT 9999 FEW015 SCT050 500000 QNH2996INS T22/1909Z T32/1918Z FN00178
FIR KZJX / Amérique du Nord



MET'MAP, la Météo Aéronautique d'un coup d'oeil ! - Copyright ORBIFLY Décembre 2007 - Disclaimer

ORBIFLY MET'MAP TEAM :

Programmation & Développement : Alexandra Zaïnal
Conception & Développement : Baudouin d'Aumeries
Co-Programmation & Développement : Marc-Olivier Méhu
Soutien technique & logistique : Manuel Goepfert

Contact : metmap@orbifly.com




SOURCES & CREDITS :

   NOAA       Earth
Advisory